Time;durP1;ratioP1;P1;durP2;ratioP2;P2;SDS_P1;SDS_P2;PMS_P1;PMS_P2;Temp;Humidity;BMP_temperature;BMP_pressure;BME280_temperature;BME280_humidity;BME280_pressure;Samples;Min_cycle;Max_cycle;Signal;HPM_P1;HPM_P2
2022/10/12 00:00:45;;;;;;;5.22;4.22;;;;;;;;;;5075155;28;20280;-53
2022/10/12 00:03:12;;;;;;;7.82;3.92;;;;;;;;;;5075018;28;20196;-49
2022/10/12 00:05:39;;;;;;;5.32;3.72;;;;;;;;;;5075177;28;20208;-54
2022/10/12 00:08:06;;;;;;;4.88;3.92;;;;;;;;;;5075158;28;20237;-54
2022/10/12 00:10:34;;;;;;;5.47;4.30;;;;;;;;;;5074030;28;20217;-54
2022/10/12 00:13:01;;;;;;;7.57;4.80;;;;;;;;;;5074907;28;20196;-51
2022/10/12 00:15:28;;;;;;;6.38;3.80;;;;;;;;;;5074808;28;20547;-52
2022/10/12 00:17:56;;;;;;;5.57;3.47;;;;;;;;;;5074727;28;20189;-51
2022/10/12 00:20:23;;;;;;;5.38;3.33;;;;;;;;;;5074833;28;20185;-54
2022/10/12 00:22:50;;;;;;;7.40;3.80;;;;;;;;;;5074815;28;20189;-55
2022/10/12 00:25:16;;;;;;;7.45;3.80;;;;;;;;;;5074774;28;20190;-55
2022/10/12 00:27:45;;;;;;;4.72;3.67;;;;;;;;;;5074612;28;20189;-54
2022/10/12 00:30:13;;;;;;;5.88;3.58;;;;;;;;;;5074272;28;20227;-54
2022/10/12 00:32:40;;;;;;;7.65;3.78;;;;;;;;;;5074676;28;20193;-50
2022/10/12 00:35:09;;;;;;;5.07;4.20;;;;;;;;;;5074576;28;20193;-52
2022/10/12 00:37:36;;;;;;;6.95;3.95;;;;;;;;;;5074490;28;20235;-55
2022/10/12 00:40:03;;;;;;;5.45;3.90;;;;;;;;;;5074292;28;20190;-55
2022/10/12 00:42:30;;;;;;;5.05;3.53;;;;;;;;;;5074331;28;20189;-49
2022/10/12 00:44:56;;;;;;;11.77;4.63;;;;;;;;;;5074168;28;20280;-54
2022/10/12 00:47:26;;;;;;;4.93;4.22;;;;;;;;;;5074150;28;20576;-52
2022/10/12 00:49:55;;;;;;;4.60;4.10;;;;;;;;;;5074105;28;20581;-53
2022/10/12 00:52:25;;;;;;;5.72;3.70;;;;;;;;;;5074078;28;20191;-55
2022/10/12 00:54:54;;;;;;;7.25;4.43;;;;;;;;;;5074501;28;20197;-54
2022/10/12 00:57:22;;;;;;;5.65;3.97;;;;;;;;;;5073911;28;20281;-51
2022/10/12 00:59:51;;;;;;;7.93;4.32;;;;;;;;;;5074081;28;20189;-51
2022/10/12 01:02:18;;;;;;;4.40;3.20;;;;;;;;;;5074055;28;20189;-54
2022/10/12 01:04:45;;;;;;;8.43;4.38;;;;;;;;;;5073924;28;20191;-55
2022/10/12 01:07:12;;;;;;;6.32;4.40;;;;;;;;;;5073853;28;20185;-54
2022/10/12 01:09:41;;;;;;;5.25;3.80;;;;;;;;;;5074015;28;20213;-55
2022/10/12 01:12:08;;;;;;;7.22;3.67;;;;;;;;;;5073936;28;20276;-55
2022/10/12 01:14:35;;;;;;;7.65;4.32;;;;;;;;;;5073837;28;20189;-55
2022/10/12 01:17:06;;;;;;;5.28;4.47;;;;;;;;;;5073676;28;20197;-56
2022/10/12 01:19:44;;;;;;;5.90;4.22;;;;;;;;;;5073528;28;20251;-55
2022/10/12 01:22:12;;;;;;;4.75;3.75;;;;;;;;;;5073477;28;20207;-54
2022/10/12 01:24:44;;;;;;;5.30;4.80;;;;;;;;;;5073711;28;20189;-56
2022/10/12 01:27:23;;;;;;;7.80;4.63;;;;;;;;;;5073631;28;20228;-56
2022/10/12 01:30:12;;;;;;;8.88;4.88;;;;;;;;;;5073298;28;20223;-55
2022/10/12 01:32:44;;;;;;;4.82;4.38;;;;;;;;;;5073281;28;20189;-56
2022/10/12 01:35:16;;;;;;;6.05;5.40;;;;;;;;;;5073467;28;20197;-55
2022/10/12 01:37:47;;;;;;;6.40;5.40;;;;;;;;;;5073419;28;20193;-54
2022/10/12 01:40:16;;;;;;;6.43;5.28;;;;;;;;;;5073283;28;20288;-56
2022/10/12 01:42:44;;;;;;;4.82;4.43;;;;;;;;;;5073282;28;20556;-51
2022/10/12 01:45:14;;;;;;;7.03;5.65;;;;;;;;;;5073139;28;20186;-55
2022/10/12 01:47:41;;;;;;;7.13;5.38;;;;;;;;;;5073018;28;20231;-55
2022/10/12 01:50:10;;;;;;;11.63;4.97;;;;;;;;;;5073144;28;20308;-53
2022/10/12 01:52:41;;;;;;;7.50;4.95;;;;;;;;;;5073172;28;20185;-55
2022/10/12 01:55:14;;;;;;;6.60;4.90;;;;;;;;;;5073116;28;20185;-51
2022/10/12 01:57:47;;;;;;;6.97;5.10;;;;;;;;;;5073032;28;20640;-56
2022/10/12 02:00:16;;;;;;;9.07;5.70;;;;;;;;;;5073077;28;20561;-55
2022/10/12 02:02:48;;;;;;;6.80;4.75;;;;;;;;;;5073060;28;20189;-55
2022/10/12 02:05:16;;;;;;;8.93;5.57;;;;;;;;;;5073099;28;20756;-56
2022/10/12 02:07:47;;;;;;;8.98;4.55;;;;;;;;;;5073102;28;20280;-55
2022/10/12 02:10:16;;;;;;;6.20;4.80;;;;;;;;;;5072827;28;20304;-55
2022/10/12 02:12:44;;;;;;;6.47;5.00;;;;;;;;;;5072955;28;20675;-55
2022/10/12 02:15:12;;;;;;;7.40;4.95;;;;;;;;;;5072980;28;20276;-55
2022/10/12 02:17:42;;;;;;;8.57;4.75;;;;;;;;;;5073019;28;20190;-55
2022/10/12 02:20:11;;;;;;;8.10;5.15;;;;;;;;;;5072785;28;20683;-55
2022/10/12 02:22:40;;;;;;;9.30;4.80;;;;;;;;;;5072704;28;20193;-54
2022/10/12 02:25:09;;;;;;;4.43;4.00;;;;;;;;;;5073046;28;20280;-55
2022/10/12 02:27:37;;;;;;;5.18;4.43;;;;;;;;;;5072879;28;20235;-55
2022/10/12 02:30:05;;;;;;;7.70;5.75;;;;;;;;;;5072704;28;20644;-55
2022/10/12 02:32:36;;;;;;;9.80;5.88;;;;;;;;;;5072708;28;20185;-51
2022/10/12 02:35:07;;;;;;;6.05;4.82;;;;;;;;;;5076021;28;20276;-51
2022/10/12 02:37:37;;;;;;;6.70;5.05;;;;;;;;;;5077297;28;20280;-55
2022/10/12 02:40:07;;;;;;;7.72;5.57;;;;;;;;;;5076729;28;20227;-56
2022/10/12 02:42:36;;;;;;;5.20;4.70;;;;;;;;;;5076750;28;20281;-55
2022/10/12 02:45:05;;;;;;;5.88;4.28;;;;;;;;;;5076559;28;20189;-55
2022/10/12 02:47:33;;;;;;;5.97;5.30;;;;;;;;;;5076265;28;20252;-55
2022/10/12 02:50:00;;;;;;;5.55;4.47;;;;;;;;;;5076483;28;20621;-55
2022/10/12 02:52:30;;;;;;;6.22;5.03;;;;;;;;;;5076349;28;20736;-55
2022/10/12 02:54:57;;;;;;;7.95;5.22;;;;;;;;;;5076475;28;20185;-55
2022/10/12 02:57:23;;;;;;;6.43;5.05;;;;;;;;;;5076340;28;20280;-54
2022/10/12 02:59:50;;;;;;;6.80;5.05;;;;;;;;;;5076260;28;20284;-54
2022/10/12 03:02:17;;;;;;;5.13;4.50;;;;;;;;;;5076112;28;20280;-55
2022/10/12 03:04:44;;;;;;;5.07;4.68;;;;;;;;;;5076345;28;20200;-57
2022/10/12 03:07:11;;;;;;;6.25;5.50;;;;;;;;;;5076041;28;20660;-55
2022/10/12 03:09:39;;;;;;;7.95;5.20;;;;;;;;;;5076091;28;20195;-50
2022/10/12 03:12:06;;;;;;;5.03;4.00;;;;;;;;;;5075973;28;20243;-55
2022/10/12 03:14:34;;;;;;;5.78;4.63;;;;;;;;;;5075874;28;20189;-53
2022/10/12 03:17:01;;;;;;;6.93;5.05;;;;;;;;;;5075977;28;20193;-50
2022/10/12 03:19:28;;;;;;;5.70;4.53;;;;;;;;;;5075976;28;20598;-53
2022/10/12 03:21:54;;;;;;;6.60;5.38;;;;;;;;;;5075947;28;20280;-54
2022/10/12 03:24:21;;;;;;;14.02;11.98;;;;;;;;;;5075817;28;20189;-53
2022/10/12 03:26:50;;;;;;;6.38;5.15;;;;;;;;;;5075748;28;20190;-52
2022/10/12 03:29:17;;;;;;;5.90;4.43;;;;;;;;;;5075877;28;20186;-54
2022/10/12 03:31:43;;;;;;;5.55;4.82;;;;;;;;;;5075845;28;20217;-54
2022/10/12 03:34:10;;;;;;;9.10;4.85;;;;;;;;;;5075744;28;20696;-56
2022/10/12 03:36:37;;;;;;;5.03;4.40;;;;;;;;;;5075619;28;20200;-54
2022/10/12 03:39:04;;;;;;;6.43;5.43;;;;;;;;;;5075522;28;20200;-53
2022/10/12 03:41:31;;;;;;;6.15;5.15;;;;;;;;;;5075449;28;20556;-54
2022/10/12 03:43:59;;;;;;;6.75;5.35;;;;;;;;;;5075850;28;20185;-57
2022/10/12 03:46:26;;;;;;;5.72;5.00;;;;;;;;;;5074404;28;20283;-55
2022/10/12 03:48:53;;;;;;;7.90;5.03;;;;;;;;;;5075046;28;20221;-55
2022/10/12 03:51:20;;;;;;;7.07;4.50;;;;;;;;;;5075355;28;20227;-55
2022/10/12 03:53:47;;;;;;;6.75;4.68;;;;;;;;;;5075340;28;20225;-56
2022/10/12 03:56:14;;;;;;;9.90;5.57;;;;;;;;;;5075119;28;20196;-57
2022/10/12 03:58:41;;;;;;;8.60;5.40;;;;;;;;;;5075288;28;20196;-55
2022/10/12 04:01:09;;;;;;;10.00;5.80;;;;;;;;;;5075268;28;20195;-56
2022/10/12 04:03:36;;;;;;;9.80;5.10;;;;;;;;;;5075272;28;20598;-56
2022/10/12 04:06:03;;;;;;;6.25;5.25;;;;;;;;;;5075109;28;20553;-57
2022/10/12 04:08:30;;;;;;;8.35;4.35;;;;;;;;;;5074972;28;20193;-55
2022/10/12 04:10:57;;;;;;;9.40;4.63;;;;;;;;;;5074780;28;20305;-52
2022/10/12 04:13:24;;;;;;;9.65;4.60;;;;;;;;;;5075081;28;20279;-57
2022/10/12 04:15:51;;;;;;;4.68;4.25;;;;;;;;;;5075042;28;20193;-57
2022/10/12 04:18:19;;;;;;;6.25;4.43;;;;;;;;;;5074897;28;20185;-55
2022/10/12 04:20:48;;;;;;;14.98;5.57;;;;;;;;;;5074814;28;20189;-53
2022/10/12 04:23:14;;;;;;;9.90;5.50;;;;;;;;;;5074685;28;20193;-52
2022/10/12 04:25:41;;;;;;;5.95;5.00;;;;;;;;;;5074559;28;20200;-54
2022/10/12 04:28:08;;;;;;;10.18;4.63;;;;;;;;;;5074650;28;20588;-55
2022/10/12 04:30:35;;;;;;;6.55;4.35;;;;;;;;;;5074457;28;20307;-57
2022/10/12 04:33:02;;;;;;;7.70;4.90;;;;;;;;;;5074368;28;20667;-57
2022/10/12 04:35:30;;;;;;;6.07;4.32;;;;;;;;;;5074468;28;20189;-56
2022/10/12 04:37:57;;;;;;;4.95;4.45;;;;;;;;;;5074362;28;20284;-54
2022/10/12 04:40:24;;;;;;;10.05;5.22;;;;;;;;;;5074432;28;20193;-56
2022/10/12 04:42:51;;;;;;;8.63;4.57;;;;;;;;;;5074431;28;20189;-56
2022/10/12 04:45:18;;;;;;;7.10;5.45;;;;;;;;;;5074390;28;20192;-55
2022/10/12 04:47:45;;;;;;;6.63;4.70;;;;;;;;;;5074139;28;20311;-54
2022/10/12 04:50:12;;;;;;;7.43;4.63;;;;;;;;;;5073961;28;20195;-57
2022/10/12 04:52:40;;;;;;;6.40;5.10;;;;;;;;;;5074050;28;20188;-56
2022/10/12 04:55:07;;;;;;;9.23;5.32;;;;;;;;;;5074214;28;20185;-56
2022/10/12 04:57:34;;;;;;;13.27;6.07;;;;;;;;;;5073770;28;20192;-51
2022/10/12 05:00:01;;;;;;;9.55;5.45;;;;;;;;;;5074362;28;20289;-54
2022/10/12 05:02:28;;;;;;;7.68;5.00;;;;;;;;;;5074016;28;20205;-56
2022/10/12 05:04:55;;;;;;;14.32;6.45;;;;;;;;;;5073733;28;20280;-54
2022/10/12 05:07:22;;;;;;;12.18;5.20;;;;;;;;;;5073651;28;20676;-52
2022/10/12 05:09:50;;;;;;;12.48;6.20;;;;;;;;;;5073957;28;20185;-54
2022/10/12 05:12:17;;;;;;;5.65;4.88;;;;;;;;;;5073828;28;20228;-55
2022/10/12 05:14:44;;;;;;;5.95;5.35;;;;;;;;;;5073728;28;20276;-56
2022/10/12 05:17:11;;;;;;;11.25;5.70;;;;;;;;;;5073699;28;20280;-54
2022/10/12 05:19:38;;;;;;;8.73;5.82;;;;;;;;;;5073435;28;20196;-55
2022/10/12 05:22:05;;;;;;;9.00;5.35;;;;;;;;;;5073943;28;20197;-56
2022/10/12 05:24:32;;;;;;;6.82;5.25;;;;;;;;;;5073546;28;20196;-55
2022/10/12 05:27:01;;;;;;;4.95;4.15;;;;;;;;;;5073480;28;20301;-56
2022/10/12 05:29:28;;;;;;;7.72;5.07;;;;;;;;;;5073358;28;20185;-54
2022/10/12 05:31:55;;;;;;;7.40;5.20;;;;;;;;;;5073307;28;20218;-54
2022/10/12 05:34:22;;;;;;;11.88;5.00;;;;;;;;;;5073093;28;20189;-55
2022/10/12 05:36:49;;;;;;;9.70;5.82;;;;;;;;;;5073319;28;20250;-55
2022/10/12 05:39:16;;;;;;;11.98;4.88;;;;;;;;;;5073350;28;20193;-55
2022/10/12 05:41:43;;;;;;;7.53;5.30;;;;;;;;;;5073085;28;20276;-54
2022/10/12 05:44:11;;;;;;;6.13;4.50;;;;;;;;;;5073187;28;20544;-50
2022/10/12 05:46:38;;;;;;;8.38;5.60;;;;;;;;;;5072917;28;20193;-53
2022/10/12 05:49:06;;;;;;;12.35;5.72;;;;;;;;;;5072666;28;20221;-52
2022/10/12 05:51:33;;;;;;;7.28;5.68;;;;;;;;;;5073033;28;20251;-51
2022/10/12 05:54:00;;;;;;;7.47;4.50;;;;;;;;;;5072819;28;20657;-55
2022/10/12 05:56:27;;;;;;;6.70;5.32;;;;;;;;;;5073002;28;20189;-55
2022/10/12 05:58:54;;;;;;;10.18;5.82;;;;;;;;;;5072941;28;20239;-54
2022/10/12 06:01:22;;;;;;;10.68;4.55;;;;;;;;;;5072762;28;20196;-51
2022/10/12 06:03:49;;;;;;;13.05;6.13;;;;;;;;;;5073101;28;20185;-57
2022/10/12 06:06:17;;;;;;;10.35;5.85;;;;;;;;;;5073093;28;20190;-57
2022/10/12 06:08:43;;;;;;;7.38;6.65;;;;;;;;;;5072272;28;20284;-55
2022/10/12 06:11:10;;;;;;;8.02;6.40;;;;;;;;;;5072948;28;20239;-53
2022/10/12 06:13:37;;;;;;;7.07;6.05;;;;;;;;;;5072966;28;20280;-55
2022/10/12 06:16:04;;;;;;;10.07;7.30;;;;;;;;;;5072664;28;20295;-55
2022/10/12 06:18:33;;;;;;;10.25;5.63;;;;;;;;;;5072672;28;20208;-51
2022/10/12 06:21:00;;;;;;;8.48;4.88;;;;;;;;;;5072716;28;20200;-55
2022/10/12 06:23:27;;;;;;;9.05;6.03;;;;;;;;;;5072499;28;20276;-53
2022/10/12 06:25:54;;;;;;;7.60;5.80;;;;;;;;;;5072568;28;20203;-51
2022/10/12 06:28:21;;;;;;;11.77;6.65;;;;;;;;;;5072429;28;20255;-51
2022/10/12 06:30:53;;;;;;;9.48;6.57;;;;;;;;;;5072614;28;20213;-51
2022/10/12 06:33:20;;;;;;;10.05;5.40;;;;;;;;;;5072612;28;20205;-54
2022/10/12 06:35:48;;;;;;;7.13;5.20;;;;;;;;;;5072648;28;20196;-51
2022/10/12 06:38:15;;;;;;;9.77;5.43;;;;;;;;;;5072381;28;20189;-49
2022/10/12 06:40:42;;;;;;;6.18;5.55;;;;;;;;;;5072492;28;20623;-53
2022/10/12 06:43:10;;;;;;;7.78;5.55;;;;;;;;;;5080789;28;20275;-55
2022/10/12 06:45:37;;;;;;;7.47;4.90;;;;;;;;;;5081128;28;20778;-51
2022/10/12 06:48:04;;;;;;;10.90;5.53;;;;;;;;;;5077751;28;20227;-50
2022/10/12 06:50:31;;;;;;;9.50;5.05;;;;;;;;;;5081645;28;20189;-51
2022/10/12 06:52:59;;;;;;;15.52;7.47;;;;;;;;;;5092238;28;20684;-53
2022/10/12 06:55:27;;;;;;;6.72;5.63;;;;;;;;;;5091656;28;20180;-55
2022/10/12 06:57:55;;;;;;;8.45;5.15;;;;;;;;;;5089406;28;20185;-51
2022/10/12 07:00:22;;;;;;;9.15;5.80;;;;;;;;;;5091835;28;20264;-55
2022/10/12 07:02:49;;;;;;;11.00;5.72;;;;;;;;;;5091782;28;20292;-54
2022/10/12 07:05:16;;;;;;;14.32;8.60;;;;;;;;;;5092208;28;20207;-51
2022/10/12 07:07:43;;;;;;;11.43;8.30;;;;;;;;;;5092332;28;20279;-51
2022/10/12 07:10:12;;;;;;;15.35;8.27;;;;;;;;;;5092182;28;20195;-50
2022/10/12 07:12:39;;;;;;;9.00;7.93;;;;;;;;;;5092468;28;20217;-55
2022/10/12 07:15:06;;;;;;;12.13;7.40;;;;;;;;;;5092511;28;20185;-50
2022/10/12 07:17:33;;;;;;;7.45;6.40;;;;;;;;;;5092254;28;20193;-51
2022/10/12 07:20:00;;;;;;;10.60;7.03;;;;;;;;;;5093324;28;20181;-52
2022/10/12 07:22:27;;;;;;;11.13;7.30;;;;;;;;;;5095861;28;20189;-56
2022/10/12 07:24:54;;;;;;;7.82;7.10;;;;;;;;;;5095666;28;20181;-55
2022/10/12 07:27:22;;;;;;;8.20;7.40;;;;;;;;;;5095976;28;20191;-49
2022/10/12 07:29:49;;;;;;;11.68;7.63;;;;;;;;;;5095931;28;20189;-54
2022/10/12 07:32:16;;;;;;;18.90;8.77;;;;;;;;;;5095461;28;20205;-56
2022/10/12 07:34:43;;;;;;;9.68;7.32;;;;;;;;;;5092781;28;20271;-54
2022/10/12 07:37:11;;;;;;;12.90;8.10;;;;;;;;;;5095749;28;20192;-52
2022/10/12 07:39:40;;;;;;;8.93;7.40;;;;;;;;;;5095948;28;20637;-56
2022/10/12 07:42:07;;;;;;;8.80;7.88;;;;;;;;;;5095810;28;20188;-52
2022/10/12 07:44:35;;;;;;;11.55;8.70;;;;;;;;;;5095756;28;20257;-54
2022/10/12 07:47:02;;;;;;;19.17;10.00;;;;;;;;;;5097691;28;20724;-53
2022/10/12 07:49:29;;;;;;;18.70;8.75;;;;;;;;;;5115483;28;20199;-53
2022/10/12 07:51:56;;;;;;;9.17;7.87;;;;;;;;;;5115681;28;20261;-53
2022/10/12 07:54:23;;;;;;;12.50;9.20;;;;;;;;;;5114920;28;20556;-54
2022/10/12 07:56:50;;;;;;;9.40;8.43;;;;;;;;;;5115547;28;20446;-51
2022/10/12 07:59:17;;;;;;;10.60;8.80;;;;;;;;;;5115740;28;20482;-53
2022/10/12 08:01:45;;;;;;;8.45;7.65;;;;;;;;;;5115689;28;20453;-51
2022/10/12 08:04:12;;;;;;;10.20;8.77;;;;;;;;;;5115551;28;20196;-52
2022/10/12 08:06:42;;;;;;;10.20;9.30;;;;;;;;;;5115798;28;20452;-52
2022/10/12 08:09:09;;;;;;;11.00;7.87;;;;;;;;;;5115305;28;20455;-55
2022/10/12 08:11:37;;;;;;;9.30;7.53;;;;;;;;;;5115551;28;20446;-51
2022/10/12 08:14:04;;;;;;;12.93;7.27;;;;;;;;;;5115486;28;20452;-53
2022/10/12 08:16:31;;;;;;;8.47;6.77;;;;;;;;;;5115312;28;20456;-60
2022/10/12 08:19:01;;;;;;;8.57;7.67;;;;;;;;;;5115059;28;20488;-59
2022/10/12 08:21:28;;;;;;;8.03;7.30;;;;;;;;;;5084255;28;20810;-62
2022/10/12 08:23:55;;;;;;;10.70;6.70;;;;;;;;;;5073829;28;20857;-59
2022/10/12 08:26:22;;;;;;;7.63;6.93;;;;;;;;;;5077519;28;20458;-59
2022/10/12 08:28:49;;;;;;;14.10;7.30;;;;;;;;;;5076391;28;20458;-60
2022/10/12 08:31:18;;;;;;;7.17;5.60;;;;;;;;;;5085842;28;20455;-60
2022/10/12 08:33:45;;;;;;;7.70;5.33;;;;;;;;;;5077674;28;21005;-59
2022/10/12 08:36:14;;;;;;;5.80;5.10;;;;;;;;;;5074515;28;20447;-59
2022/10/12 08:38:42;;;;;;;5.80;5.20;;;;;;;;;;5082201;28;20459;-60
2022/10/12 08:41:21;;;;;;;5.67;4.97;;;;;;;;;;5086175;28;21239;-59
2022/10/12 08:43:54;;;;;;;7.33;4.60;;;;;;;;;;5077001;28;20462;-62
2022/10/12 08:46:22;;;;;;;5.37;4.87;;;;;;;;;;5081921;28;20563;-60
2022/10/12 08:48:52;;;;;;;9.73;5.63;;;;;;;;;;5094110;28;20487;-56
2022/10/12 08:51:22;;;;;;;5.33;4.80;;;;;;;;;;5090071;28;20465;-56
2022/10/12 08:53:51;;;;;;;6.77;4.50;;;;;;;;;;5095365;28;20840;-59
2022/10/12 08:56:19;;;;;;;6.28;4.22;;;;;;;;;;5101132;28;20446;-60
2022/10/12 08:58:47;;;;;;;6.33;4.33;;;;;;;;;;5097136;28;20185;-60
2022/10/12 09:01:19;;;;;;;4.90;3.50;;;;;;;;;;5084479;28;20476;-58
2022/10/12 09:03:53;;;;;;;5.95;3.75;;;;;;;;;;5082541;28;20454;-63
2022/10/12 09:06:22;;;;;;;6.87;3.70;;;;;;;;;;5085496;28;20189;-62
2022/10/12 09:08:54;;;;;;;8.87;3.07;;;;;;;;;;5076081;28;20473;-61
2022/10/12 09:11:28;;;;;;;15.10;5.63;;;;;;;;;;5081654;28;21034;-60
2022/10/12 09:13:57;;;;;;;7.50;3.67;;;;;;;;;;5076886;28;21019;-61
2022/10/12 09:16:26;;;;;;;3.60;3.30;;;;;;;;;;5088648;28;20979;-61
2022/10/12 09:18:56;;;;;;;6.90;3.77;;;;;;;;;;5087759;28;20545;-59
2022/10/12 09:21:26;;;;;;;14.83;4.60;;;;;;;;;;5073241;28;20547;-57
2022/10/12 09:23:56;;;;;;;6.07;3.10;;;;;;;;;;5081707;28;20447;-59
2022/10/12 09:26:30;;;;;;;4.60;3.30;;;;;;;;;;5073734;28;20455;-58
2022/10/12 09:28:57;;;;;;;5.43;2.57;;;;;;;;;;5084475;28;20810;-61
2022/10/12 09:31:32;;;;;;;3.70;3.00;;;;;;;;;;5078036;28;20824;-60
2022/10/12 09:33:59;;;;;;;10.53;3.17;;;;;;;;;;5107119;28;20473;-60
2022/10/12 09:36:28;;;;;;;7.50;2.60;;;;;;;;;;5113206;28;20449;-60
2022/10/12 09:38:56;;;;;;;5.47;2.70;;;;;;;;;;5077493;28;20943;-60
2022/10/12 09:41:24;;;;;;;8.77;2.43;;;;;;;;;;5080489;28;20554;-59
2022/10/12 09:43:52;;;;;;;7.00;2.43;;;;;;;;;;5097942;28;20453;-60
2022/10/12 09:46:23;;;;;;;11.03;3.10;;;;;;;;;;5077059;28;20452;-60
2022/10/12 09:48:57;;;;;;;4.68;2.08;;;;;;;;;;5070614;28;20571;-60
2022/10/12 09:51:24;;;;;;;10.17;2.43;;;;;;;;;;5052614;28;20709;-61
2022/10/12 09:53:53;;;;;;;7.53;1.93;;;;;;;;;;5059676;28;20987;-55
2022/10/12 09:56:24;;;;;;;7.87;2.30;;;;;;;;;;5070671;28;20457;-60
2022/10/12 09:58:53;;;;;;;9.23;2.40;;;;;;;;;;5064587;28;20447;-60
2022/10/12 10:01:22;;;;;;;8.20;2.30;;;;;;;;;;5068193;28;20470;-60
2022/10/12 10:03:51;;;;;;;19.87;2.27;;;;;;;;;;5063624;28;20197;-59
2022/10/12 10:06:23;;;;;;;9.33;2.00;;;;;;;;;;5065732;28;20463;-59
2022/10/12 10:08:50;;;;;;;4.73;1.90;;;;;;;;;;5057439;28;20474;-59
2022/10/12 10:11:20;;;;;;;4.37;1.50;;;;;;;;;;5055863;28;20456;-59
2022/10/12 10:13:49;;;;;;;14.23;2.07;;;;;;;;;;5058055;28;20472;-59
2022/10/12 10:16:17;;;;;;;5.60;2.00;;;;;;;;;;5055565;28;20467;-60
2022/10/12 10:18:47;;;;;;;7.83;1.80;;;;;;;;;;5066114;28;20447;-60
2022/10/12 10:21:15;;;;;;;8.23;1.90;;;;;;;;;;5057384;28;20947;-61
2022/10/12 10:23:43;;;;;;;6.50;2.33;;;;;;;;;;5063655;28;20843;-62
2022/10/12 10:26:12;;;;;;;14.10;1.83;;;;;;;;;;5079023;28;20452;-62
2022/10/12 10:28:41;;;;;;;5.30;1.90;;;;;;;;;;5083173;28;20977;-63
2022/10/12 10:31:20;;;;;;;5.27;1.50;;;;;;;;;;5070667;28;20451;-63
2022/10/12 10:34:03;;;;;;;3.17;1.57;;;;;;;;;;5069870;28;20552;-60
2022/10/12 10:36:30;;;;;;;7.77;1.93;;;;;;;;;;5070479;28;20454;-59
2022/10/12 10:39:01;;;;;;;4.33;1.40;;;;;;;;;;5071897;28;20846;-59
2022/10/12 10:41:30;;;;;;;8.10;1.90;;;;;;;;;;5057817;28;20793;-60
2022/10/12 10:43:59;;;;;;;7.70;1.70;;;;;;;;;;5069276;28;20486;-59
2022/10/12 10:46:28;;;;;;;6.97;2.40;;;;;;;;;;5071838;28;20458;-60
2022/10/12 10:48:57;;;;;;;6.50;1.80;;;;;;;;;;5088388;28;20516;-64
2022/10/12 10:51:39;;;;;;;1.87;1.40;;;;;;;;;;5087606;28;20508;-61
2022/10/12 10:54:13;;;;;;;6.17;2.07;;;;;;;;;;5072288;28;20486;-61
2022/10/12 10:56:40;;;;;;;3.50;1.93;;;;;;;;;;5080257;28;20945;-61
2022/10/12 10:59:17;;;;;;;3.67;1.83;;;;;;;;;;5095938;28;20955;-61
2022/10/12 11:01:51;;;;;;;13.00;2.10;;;;;;;;;;5085346;28;20799;-60
2022/10/12 11:04:20;;;;;;;8.50;1.70;;;;;;;;;;5077403;28;20455;-61
2022/10/12 11:06:49;;;;;;;4.70;1.37;;;;;;;;;;5087923;28;20449;-61
2022/10/12 11:09:18;;;;;;;3.97;1.60;;;;;;;;;;5075847;28;20450;-61
2022/10/12 11:11:46;;;;;;;2.70;1.43;;;;;;;;;;5082859;28;20450;-61
2022/10/12 11:14:16;;;;;;;7.00;2.10;;;;;;;;;;5081980;28;20476;-60
2022/10/12 11:16:46;;;;;;;7.07;1.80;;;;;;;;;;5078660;28;20467;-60
2022/10/12 11:19:20;;;;;;;4.93;2.10;;;;;;;;;;5082208;28;20541;-61
2022/10/12 11:21:49;;;;;;;3.67;1.47;;;;;;;;;;5087632;28;20197;-61
2022/10/12 11:24:17;;;;;;;3.00;1.70;;;;;;;;;;5082907;28;20816;-60
2022/10/12 11:26:46;;;;;;;3.60;1.30;;;;;;;;;;5078384;28;20542;-60
2022/10/12 11:29:16;;;;;;;7.13;1.87;;;;;;;;;;5075706;28;20469;-59
2022/10/12 11:31:53;;;;;;;5.17;1.60;;;;;;;;;;5075550;28;20447;-60
2022/10/12 11:34:22;;;;;;;4.53;1.90;;;;;;;;;;5078474;28;20486;-59
2022/10/12 11:36:50;;;;;;;6.63;1.50;;;;;;;;;;5075127;28;20891;-59
2022/10/12 11:39:19;;;;;;;5.83;1.50;;;;;;;;;;5085134;28;20188;-57
2022/10/12 11:41:46;;;;;;;2.77;1.30;;;;;;;;;;5095728;28;20561;-57
2022/10/12 11:44:18;;;;;;;7.28;1.73;;;;;;;;;;5086776;28;20455;-55
2022/10/12 11:46:47;;;;;;;6.67;1.57;;;;;;;;;;5074825;28;20189;-57
2022/10/12 11:49:16;;;;;;;3.80;1.40;;;;;;;;;;5074467;28;20467;-58
2022/10/12 11:51:46;;;;;;;5.20;1.63;;;;;;;;;;5075263;28;20469;-58
2022/10/12 11:54:16;;;;;;;4.00;1.20;;;;;;;;;;5077451;28;20489;-61
2022/10/12 11:56:45;;;;;;;3.53;1.40;;;;;;;;;;5095535;28;20456;-60
2022/10/12 11:59:16;;;;;;;3.80;1.60;;;;;;;;;;5088982;28;20450;-60
2022/10/12 12:01:54;;;;;;;8.70;1.77;;;;;;;;;;5080196;28;20487;-61
2022/10/12 12:04:24;;;;;;;6.20;1.70;;;;;;;;;;5075076;28;20526;-59
2022/10/12 12:06:53;;;;;;;5.60;1.43;;;;;;;;;;5093730;28;20479;-62
2022/10/12 12:09:22;;;;;;;3.37;1.20;;;;;;;;;;5093202;28;20538;-59
2022/10/12 12:11:49;;;;;;;12.03;1.70;;;;;;;;;;5083631;28;20456;-61
2022/10/12 12:14:37;;;;;;;2.10;1.20;;;;;;;;;;5076084;28;22091;-61
2022/10/12 12:17:14;;;;;;;1.60;1.20;;;;;;;;;;5068017;28;20447;-61
2022/10/12 12:19:42;;;;;;;4.57;1.10;;;;;;;;;;5077264;28;20459;-61
2022/10/12 12:22:23;;;;;;;3.50;1.60;;;;;;;;;;5092937;28;21026;-61
2022/10/12 12:24:58;;;;;;;2.60;1.20;;;;;;;;;;5078467;28;20542;-61
2022/10/12 12:27:30;;;;;;;6.78;1.90;;;;;;;;;;5087664;28;20485;-60
2022/10/12 12:29:57;;;;;;;2.60;1.17;;;;;;;;;;5084707;28;20188;-60
2022/10/12 12:32:27;;;;;;;3.53;1.30;;;;;;;;;;5088621;28;20465;-60
2022/10/12 12:34:56;;;;;;;2.43;1.30;;;;;;;;;;5076108;28;20894;-60
2022/10/12 12:37:23;;;;;;;8.57;1.70;;;;;;;;;;5082012;28;20458;-61
2022/10/12 12:39:54;;;;;;;1.97;1.37;;;;;;;;;;5087967;28;20457;-63
2022/10/12 12:42:22;;;;;;;2.70;1.20;;;;;;;;;;5078922;28;20447;-61
2022/10/12 12:44:49;;;;;;;4.93;1.50;;;;;;;;;;5084242;28;20451;-61
2022/10/12 12:47:21;;;;;;;3.20;1.30;;;;;;;;;;5096862;28;20560;-58
2022/10/12 12:49:51;;;;;;;3.45;1.30;;;;;;;;;;5083986;28;20451;-60
2022/10/12 12:52:19;;;;;;;3.30;1.50;;;;;;;;;;5093356;28;20184;-60
2022/10/12 12:55:07;;;;;;;3.10;1.53;;;;;;;;;;5082123;28;20493;-59
2022/10/12 12:57:42;;;;;;;5.97;1.40;;;;;;;;;;5067238;28;20546;-59
2022/10/12 13:00:12;;;;;;;2.33;1.30;;;;;;;;;;5079283;28;20195;-62
2022/10/12 13:02:58;;;;;;;4.40;1.60;;;;;;;;;;5099245;28;20192;-62
2022/10/12 13:05:47;;;;;;;1.70;1.47;;;;;;;;;;5112552;28;20449;-60
2022/10/12 13:08:20;;;;;;;6.20;1.80;;;;;;;;;;5082853;28;20451;-63
2022/10/12 13:10:58;;;;;;;4.30;1.40;;;;;;;;;;5080811;28;20451;-57
2022/10/12 13:13:33;;;;;;;6.83;1.73;;;;;;;;;;5073364;28;20482;-56
2022/10/12 13:16:07;;;;;;;7.83;1.57;;;;;;;;;;5073531;28;20447;-57
2022/10/12 13:18:47;;;;;;;5.77;1.30;;;;;;;;;;5073345;28;20496;-54
2022/10/12 13:21:17;;;;;;;4.60;1.50;;;;;;;;;;5073512;28;20447;-54
2022/10/12 13:23:45;;;;;;;4.47;1.20;;;;;;;;;;5073707;28;20818;-56
2022/10/12 13:26:16;;;;;;;5.57;1.80;;;;;;;;;;5073588;28;20454;-57
2022/10/12 13:28:43;;;;;;;5.90;1.37;;;;;;;;;;5073408;28;20534;-56
2022/10/12 13:31:14;;;;;;;6.80;1.70;;;;;;;;;;5073278;28;20517;-57
2022/10/12 13:33:44;;;;;;;3.70;1.60;;;;;;;;;;5073069;28;20471;-57
2022/10/12 13:36:17;;;;;;;8.57;1.40;;;;;;;;;;5073391;28;20539;-57
2022/10/12 13:38:46;;;;;;;6.17;1.80;;;;;;;;;;5073316;28;20193;-56
2022/10/12 13:41:14;;;;;;;9.23;1.60;;;;;;;;;;5073253;28;20814;-57
2022/10/12 13:43:44;;;;;;;4.33;1.57;;;;;;;;;;5073056;28;20988;-54
2022/10/12 13:46:12;;;;;;;5.30;2.10;;;;;;;;;;5073268;28;20508;-57
2022/10/12 13:48:39;;;;;;;8.37;1.97;;;;;;;;;;5072753;28;20830;-56
2022/10/12 13:51:18;;;;;;;3.37;1.50;;;;;;;;;;5073178;28;20444;-57
2022/10/12 13:53:47;;;;;;;4.80;1.73;;;;;;;;;;5073050;28;20471;-55
2022/10/12 13:56:15;;;;;;;4.77;1.60;;;;;;;;;;5072971;28;20447;-56
2022/10/12 13:58:42;;;;;;;9.90;2.03;;;;;;;;;;5072830;28;20543;-56
2022/10/12 14:01:11;;;;;;;3.80;1.83;;;;;;;;;;5072976;28;20938;-57
2022/10/12 14:03:39;;;;;;;2.30;1.40;;;;;;;;;;5072946;28;20830;-54
2022/10/12 14:06:06;;;;;;;4.07;1.50;;;;;;;;;;5072977;28;20473;-57
2022/10/12 14:08:34;;;;;;;3.20;1.43;;;;;;;;;;5072708;28;21023;-55
2022/10/12 14:11:03;;;;;;;6.03;2.03;;;;;;;;;;5072727;28;20458;-53
2022/10/12 14:13:31;;;;;;;7.47;2.23;;;;;;;;;;5072684;28;20448;-58
2022/10/12 14:15:58;;;;;;;4.63;2.00;;;;;;;;;;5072831;28;20482;-56
2022/10/12 14:18:32;;;;;;;11.10;2.30;;;;;;;;;;5072758;28;20497;-56
2022/10/12 14:21:05;;;;;;;4.73;2.10;;;;;;;;;;5072709;28;20469;-57
2022/10/12 14:23:32;;;;;;;7.33;2.13;;;;;;;;;;5072620;28;20457;-55
2022/10/12 14:25:59;;;;;;;5.40;1.40;;;;;;;;;;5072887;28;20444;-56
2022/10/12 14:28:29;;;;;;;5.97;1.65;;;;;;;;;;5072664;28;20521;-57
2022/10/12 14:30:56;;;;;;;5.13;1.53;;;;;;;;;;5075889;28;20189;-56
2022/10/12 14:33:24;;;;;;;4.17;1.70;;;;;;;;;;5076582;28;20803;-56
2022/10/12 14:35:51;;;;;;;4.30;1.60;;;;;;;;;;5076642;28;20946;-55
2022/10/12 14:38:39;;;;;;;5.53;1.77;;;;;;;;;;5076561;28;20449;-55
2022/10/12 14:41:30;;;;;;;5.20;2.00;;;;;;;;;;5069012;28;20500;-56
2022/10/12 14:44:05;;;;;;;4.70;1.50;;;;;;;;;;5076669;28;20458;-56
2022/10/12 14:46:32;;;;;;;4.00;1.20;;;;;;;;;;5076478;28;20454;-57
2022/10/12 14:48:59;;;;;;;3.37;1.37;;;;;;;;;;5076235;28;20813;-56
2022/10/12 14:51:26;;;;;;;9.43;1.40;;;;;;;;;;5076664;28;20814;-57